sensor_id;sensor_type;location;lat;lon;timestamp;pressure;altitude;pressure_sealevel;temperature;humidity
57779;BME280;43608;49.486;9.640;2023-08-07T00:00:02;98223.03;;;11.38;100.00
57779;BME280;43608;49.486;9.640;2023-08-07T00:00:32;98230.03;;;11.43;100.00
57779;BME280;43608;49.486;9.640;2023-08-07T00:01:03;98224.00;;;11.34;100.00
57779;BME280;43608;49.486;9.640;2023-08-07T00:01:33;98238.97;;;11.38;100.00
57779;BME280;43608;49.486;9.640;2023-08-07T00:02:04;98231.84;;;11.39;100.00
57779;BME280;43608;49.486;9.640;2023-08-07T00:02:35;98236.19;;;11.46;100.00
57779;BME280;43608;49.486;9.640;2023-08-07T00:03:06;98245.00;;;11.47;100.00
57779;BME280;43608;49.486;9.640;2023-08-07T00:03:36;98211.66;;;11.29;100.00
57779;BME280;43608;49.486;9.640;2023-08-07T00:04:06;98223.97;;;11.36;100.00
57779;BME280;43608;49.486;9.640;2023-08-07T00:04:37;98243.25;;;11.46;100.00
57779;BME280;43608;49.486;9.640;2023-08-07T00:05:07;98221.38;;;11.33;100.00
57779;BME280;43608;49.486;9.640;2023-08-07T00:05:38;98228.28;;;11.41;100.00
57779;BME280;43608;49.486;9.640;2023-08-07T00:06:08;98235.31;;;11.44;100.00
57779;BME280;43608;49.486;9.640;2023-08-07T00:06:38;98219.56;;;11.33;100.00
57779;BME280;43608;49.486;9.640;2023-08-07T00:07:09;98210.78;;;11.30;100.00
57779;BME280;43608;49.486;9.640;2023-08-07T00:07:39;98219.59;;;11.32;100.00
57779;BME280;43608;49.486;9.640;2023-08-07T00:08:09;98240.66;;;11.43;100.00
57779;BME280;43608;49.486;9.640;2023-08-07T00:08:40;98224.81;;;11.38;100.00
57779;BME280;43608;49.486;9.640;2023-08-07T00:09:10;98236.22;;;11.45;100.00
57779;BME280;43608;49.486;9.640;2023-08-07T00:09:41;98222.25;;;11.32;100.00
57779;BME280;43608;49.486;9.640;2023-08-07T00:10:11;98223.09;;;11.34;100.00
57779;BME280;43608;49.486;9.640;2023-08-07T00:10:42;98227.47;;;11.38;100.00
57779;BME280;43608;49.486;9.640;2023-08-07T00:11:12;98231.84;;;11.39;100.00
57779;BME280;43608;49.486;9.640;2023-08-07T00:11:42;98238.88;;;11.45;100.00
57779;BME280;43608;49.486;9.640;2023-08-07T00:12:13;98237.13;;;11.42;100.00
57779;BME280;43608;49.486;9.640;2023-08-07T00:12:43;98238.88;;;11.45;100.00
57779;BME280;43608;49.486;9.640;2023-08-07T00:13:14;98224.00;;;11.33;100.00
57779;BME280;43608;49.486;9.640;2023-08-07T00:13:44;98240.63;;;11.44;100.00
57779;BME280;43608;49.486;9.640;2023-08-07T00:14:14;98217.88;;;11.29;100.00
57779;BME280;43608;49.486;9.640;2023-08-07T00:14:47;98233.59;;;11.43;100.00
57779;BME280;43608;49.486;9.640;2023-08-07T00:15:17;98237.13;;;11.44;100.00
57779;BME280;43608;49.486;9.640;2023-08-07T00:15:48;98247.72;;;11.44;100.00
57779;BME280;43608;49.486;9.640;2023-08-07T00:16:18;98251.25;;;11.44;100.00
57779;BME280;43608;49.486;9.640;2023-08-07T00:16:49;98242.47;;;11.39;100.00
57779;BME280;43608;49.486;9.640;2023-08-07T00:17:19;98249.50;;;11.43;100.00
57779;BME280;43608;49.486;9.640;2023-08-07T00:17:49;98235.44;;;11.36;99.91
57779;BME280;43608;49.486;9.640;2023-08-07T00:18:20;98238.06;;;11.39;100.00
57779;BME280;43608;49.486;9.640;2023-08-07T00:18:50;98243.38;;;11.39;100.00
57779;BME280;43608;49.486;9.640;2023-08-07T00:19:23;98239.00;;;11.34;100.00
57779;BME280;43608;49.486;9.640;2023-08-07T00:19:53;98238.97;;;11.38;100.00
57779;BME280;43608;49.486;9.640;2023-08-07T00:20:24;98243.38;;;11.39;100.00
57779;BME280;43608;49.486;9.640;2023-08-07T00:20:54;98261.88;;;11.43;100.00
57779;BME280;43608;49.486;9.640;2023-08-07T00:21:24;98246.03;;;11.39;100.00
57779;BME280;43608;49.486;9.640;2023-08-07T00:21:55;98236.34;;;11.34;100.00
57779;BME280;43608;49.486;9.640;2023-08-07T00:22:25;98180.25;;;11.01;100.00
57779;BME280;43608;49.486;9.640;2023-08-07T00:22:55;98243.41;;;11.35;100.00
57779;BME280;43608;49.486;9.640;2023-08-07T00:23:26;98246.03;;;11.39;99.99
57779;BME280;43608;49.486;9.640;2023-08-07T00:23:56;98234.63;;;11.31;100.00
57779;BME280;43608;49.486;9.640;2023-08-07T00:24:26;98236.41;;;11.31;100.00
57779;BME280;43608;49.486;9.640;2023-08-07T00:24:57;98241.75;;;11.29;100.00
57779;BME280;43608;49.486;9.640;2023-08-07T00:25:27;98224.94;;;11.29;100.00
57779;BME280;43608;49.486;9.640;2023-08-07T00:25:58;98236.41;;;11.31;100.00
57779;BME280;43608;49.486;9.640;2023-08-07T00:26:28;98237.28;;;11.33;99.97
57779;BME280;43608;49.486;9.640;2023-08-07T00:26:58;98217.03;;;11.26;99.84
57779;BME280;43608;49.486;9.640;2023-08-07T00:27:29;98235.47;;;11.35;100.00
57779;BME280;43608;49.486;9.640;2023-08-07T00:27:59;98253.09;;;11.40;100.00
57779;BME280;43608;49.486;9.640;2023-08-07T00:28:29;98217.97;;;11.21;100.00
57779;BME280;43608;49.486;9.640;2023-08-07T00:29:00;98232.88;;;11.32;99.96
57779;BME280;43608;49.486;9.640;2023-08-07T00:29:30;98240.84;;;11.30;99.90
57779;BME280;43608;49.486;9.640;2023-08-07T00:30:01;98232.91;;;11.27;100.00
57779;BME280;43608;49.486;9.640;2023-08-07T00:30:31;98242.63;;;11.28;99.97
57779;BME280;43608;49.486;9.640;2023-08-07T00:31:02;98247.78;;;11.39;100.00
57779;BME280;43608;49.486;9.640;2023-08-07T00:31:32;98248.69;;;11.39;100.00
57779;BME280;43608;49.486;9.640;2023-08-07T00:32:03;98239.94;;;11.33;100.00
57779;BME280;43608;49.486;9.640;2023-08-07T00:32:33;98227.66;;;11.26;100.00
57779;BME280;43608;49.486;9.640;2023-08-07T00:33:04;98246.06;;;11.35;100.00
57779;BME280;43608;49.486;9.640;2023-08-07T00:33:34;98231.16;;;11.26;99.91
57779;BME280;43608;49.486;9.640;2023-08-07T00:34:04;98243.53;;;11.27;99.84
57779;BME280;43608;49.486;9.640;2023-08-07T00:34:35;98244.34;;;11.32;100.00
57779;BME280;43608;49.486;9.640;2023-08-07T00:35:06;98254.88;;;11.38;100.00
57779;BME280;43608;49.486;9.640;2023-08-07T00:35:38;98248.69;;;11.38;100.00
57779;BME280;43608;49.486;9.640;2023-08-07T00:36:08;98238.19;;;11.32;100.00
57779;BME280;43608;49.486;9.640;2023-08-07T00:36:39;98239.13;;;11.28;100.00
57779;BME280;43608;49.486;9.640;2023-08-07T00:37:09;98252.22;;;11.38;100.00
57779;BME280;43608;49.486;9.640;2023-08-07T00:37:40;98265.50;;;11.38;100.00
57779;BME280;43608;49.486;9.640;2023-08-07T00:38:10;98249.63;;;11.35;100.00
57779;BME280;43608;49.486;9.640;2023-08-07T00:38:40;98238.25;;;11.26;100.00
57779;BME280;43608;49.486;9.640;2023-08-07T00:39:11;98256.66;;;11.38;100.00
57779;BME280;43608;49.486;9.640;2023-08-07T00:39:41;98256.66;;;11.36;100.00
57779;BME280;43608;49.486;9.640;2023-08-07T00:40:11;98248.81;;;11.30;99.83
57779;BME280;43608;49.486;9.640;2023-08-07T00:40:44;98244.41;;;11.29;100.00
57779;BME280;43608;49.486;9.640;2023-08-07T00:41:16;98218.94;;;11.17;100.00
57779;BME280;43608;49.486;9.640;2023-08-07T00:41:48;98254.97;;;11.32;100.00
57779;BME280;43608;49.486;9.640;2023-08-07T00:42:18;98249.63;;;11.34;100.00
57779;BME280;43608;49.486;9.640;2023-08-07T00:42:49;98237.38;;;11.23;100.00
57779;BME280;43608;49.486;9.640;2023-08-07T00:43:19;98239.13;;;11.26;100.00
57779;BME280;43608;49.486;9.640;2023-08-07T00:43:50;98250.53;;;11.33;100.00
57779;BME280;43608;49.486;9.640;2023-08-07T00:44:20;98255.78;;;11.36;100.00
57779;BME280;43608;49.486;9.640;2023-08-07T00:44:50;98244.34;;;11.32;100.00
57779;BME280;43608;49.486;9.640;2023-08-07T00:45:21;98252.28;;;11.34;100.00
57779;BME280;43608;49.486;9.640;2023-08-07T00:45:51;98221.59;;;11.17;100.00
57779;BME280;43608;49.486;9.640;2023-08-07T00:46:22;98232.94;;;11.26;100.00
57779;BME280;43608;49.486;9.640;2023-08-07T00:46:52;98225.09;;;11.18;100.00
57779;BME280;43608;49.486;9.640;2023-08-07T00:47:24;98251.38;;;11.35;100.00
57779;BME280;43608;49.486;9.640;2023-08-07T00:47:56;98245.28;;;11.28;100.00
57779;BME280;43608;49.486;9.640;2023-08-07T00:48:27;98259.34;;;11.35;100.00
57779;BME280;43608;49.486;9.640;2023-08-07T00:48:57;98237.38;;;11.23;100.00
57779;BME280;43608;49.486;9.640;2023-08-07T00:49:28;98242.69;;;11.25;100.00
57779;BME280;43608;49.486;9.640;2023-08-07T00:49:58;98254.06;;;11.33;100.00
57779;BME280;43608;49.486;9.640;2023-08-07T00:50:29;98260.22;;;11.34;100.00
57779;BME280;43608;49.486;9.640;2023-08-07T00:51:00;98250.59;;;11.28;100.00
57779;BME280;43608;49.486;9.640;2023-08-07T00:51:31;98244.44;;;11.24;100.00
57779;BME280;43608;49.486;9.640;2023-08-07T00:52:02;98250.59;;;11.28;100.00
57779;BME280;43608;49.486;9.640;2023-08-07T00:52:32;98256.75;;;11.32;100.00
57779;BME280;43608;49.486;9.640;2023-08-07T00:53:04;98261.16;;;11.33;100.00
57779;BME280;43608;49.486;9.640;2023-08-07T00:53:37;98258.50;;;11.33;100.00
57779;BME280;43608;49.486;9.640;2023-08-07T00:54:10;98255.91;;;11.28;100.00
57779;BME280;43608;49.486;9.640;2023-08-07T00:54:42;98248.00;;;11.23;100.00
57779;BME280;43608;49.486;9.640;2023-08-07T00:55:12;98259.44;;;11.30;100.00
57779;BME280;43608;49.486;9.640;2023-08-07T00:55:43;98240.13;;;11.19;100.00
57779;BME280;43608;49.486;9.640;2023-08-07T00:56:13;98236.63;;;11.15;100.00
57779;BME280;43608;49.486;9.640;2023-08-07T00:56:44;98261.16;;;11.31;100.00
57779;BME280;43608;49.486;9.640;2023-08-07T00:57:15;98233.13;;;11.13;100.00
57779;BME280;43608;49.486;9.640;2023-08-07T00:57:45;98250.66;;;11.25;100.00
57779;BME280;43608;49.486;9.640;2023-08-07T00:58:16;98255.03;;;11.26;100.00
57779;BME280;43608;49.486;9.640;2023-08-07T00:58:47;98265.59;;;11.31;100.00
57779;BME280;43608;49.486;9.640;2023-08-07T00:59:19;98261.22;;;11.28;100.00
57779;BME280;43608;49.486;9.640;2023-08-07T00:59:49;98265.59;;;11.31;100.00
57779;BME280;43608;49.486;9.640;2023-08-07T01:00:20;98266.50;;;11.28;100.00
57779;BME280;43608;49.486;9.640;2023-08-07T01:00:51;98264.75;;;11.27;100.00
57779;BME280;43608;49.486;9.640;2023-08-07T01:01:21;98254.25;;;11.19;100.00
57779;BME280;43608;49.486;9.640;2023-08-07T01:01:51;98269.13;;;11.31;100.00
57779;BME280;43608;49.486;9.640;2023-08-07T01:02:22;98256.78;;;11.27;100.00
57779;BME280;43608;49.486;9.640;2023-08-07T01:02:54;98219.16;;;10.99;100.00
57779;BME280;43608;49.486;9.640;2023-08-07T01:03:25;98255.94;;;11.23;100.00
57779;BME280;43608;49.486;9.640;2023-08-07T01:03:56;98223.50;;;11.06;100.00
57779;BME280;43608;49.486;9.640;2023-08-07T01:04:26;98264.72;;;11.30;100.00
57779;BME280;43608;49.486;9.640;2023-08-07T01:04:57;98255.94;;;11.27;100.00
57779;BME280;43608;49.486;9.640;2023-08-07T01:05:27;98251.56;;;11.21;100.00
57779;BME280;43608;49.486;9.640;2023-08-07T01:05:57;98258.59;;;11.23;100.00
57779;BME280;43608;49.486;9.640;2023-08-07T01:06:28;98259.44;;;11.27;100.00
57779;BME280;43608;49.486;9.640;2023-08-07T01:06:58;98258.66;;;11.20;100.00
57779;BME280;43608;49.486;9.640;2023-08-07T01:07:28;98248.97;;;11.18;100.00
57779;BME280;43608;49.486;9.640;2023-08-07T01:07:59;98237.59;;;11.10;100.00
57779;BME280;43608;49.486;9.640;2023-08-07T01:08:30;98253.31;;;11.25;100.00
57779;BME280;43608;49.486;9.640;2023-08-07T01:09:01;98242.81;;;11.14;100.00
57779;BME280;43608;49.486;9.640;2023-08-07T01:09:31;98262.97;;;11.29;100.00
57779;BME280;43608;49.486;9.640;2023-08-07T01:10:02;98265.63;;;11.29;100.00
57779;BME280;43608;49.486;9.640;2023-08-07T01:11:50;98263.91;;;11.23;100.00
57779;BME280;43608;49.486;9.640;2023-08-07T01:12:30;98265.69;;;11.24;100.00
57779;BME280;43608;49.486;9.640;2023-08-07T01:13:11;98256.00;;;11.20;100.00
57779;BME280;43608;49.486;9.640;2023-08-07T01:14:13;98271.81;;;11.28;100.00
57779;BME280;43608;49.486;9.640;2023-08-07T01:14:55;98275.41;;;11.26;100.00
57779;BME280;43608;49.486;9.640;2023-08-07T01:15:30;98273.63;;;11.28;100.00
57779;BME280;43608;49.486;9.640;2023-08-07T01:16:11;98276.25;;;11.28;100.00
57779;BME280;43608;49.486;9.640;2023-08-07T01:16:50;98256.03;;;11.19;100.00
57779;BME280;43608;49.486;9.640;2023-08-07T01:17:22;98252.59;;;11.12;100.00
57779;BME280;43608;49.486;9.640;2023-08-07T01:17:53;98267.50;;;11.22;100.00
57779;BME280;43608;49.486;9.640;2023-08-07T01:18:24;98257.78;;;11.21;100.00
57779;BME280;43608;49.486;9.640;2023-08-07T01:18:56;98261.31;;;11.20;100.00
57779;BME280;43608;49.486;9.640;2023-08-07T01:19:28;98256.94;;;11.18;100.00
57779;BME280;43608;49.486;9.640;2023-08-07T01:19:59;98270.09;;;11.26;100.00
57779;BME280;43608;49.486;9.640;2023-08-07T01:20:30;98251.69;;;11.13;100.00
57779;BME280;43608;49.486;9.640;2023-08-07T01:21:03;98234.13;;;11.04;100.00
57779;BME280;43608;49.486;9.640;2023-08-07T01:21:33;98238.50;;;11.08;100.00
57779;BME280;43608;49.486;9.640;2023-08-07T01:22:17;98267.47;;;11.24;100.00
57779;BME280;43608;49.486;9.640;2023-08-07T01:22:47;98247.31;;;11.11;100.00
57779;BME280;43608;49.486;9.640;2023-08-07T01:23:18;98249.88;;;11.15;100.00
57779;BME280;43608;49.486;9.640;2023-08-07T01:23:48;98268.38;;;11.21;100.00
57779;BME280;43608;49.486;9.640;2023-08-07T01:24:19;98269.16;;;11.28;100.00
57779;BME280;43608;49.486;9.640;2023-08-07T01:24:50;98268.28;;;11.26;100.00
57779;BME280;43608;49.486;9.640;2023-08-07T01:25:20;98250.81;;;11.13;100.00
57779;BME280;43608;49.486;9.640;2023-08-07T01:25:51;98240.19;;;11.13;100.00
57779;BME280;43608;49.486;9.640;2023-08-07T01:26:22;98244.63;;;11.12;100.00
57779;BME280;43608;49.486;9.640;2023-08-07T01:26:53;98256.06;;;11.17;100.00
57779;BME280;43608;49.486;9.640;2023-08-07T01:27:36;98275.41;;;11.26;100.00
57779;BME280;43608;49.486;9.640;2023-08-07T01:28:27;98253.41;;;11.17;100.00
57779;BME280;43608;49.486;9.640;2023-08-07T01:29:12;98261.34;;;11.19;100.00
57779;BME280;43608;49.486;9.640;2023-08-07T01:30:40;98273.66;;;11.23;100.00
57779;BME280;43608;49.486;9.640;2023-08-07T01:31:14;98247.31;;;11.09;100.00
57779;BME280;43608;49.486;9.640;2023-08-07T01:31:48;98269.28;;;11.19;100.00
57779;BME280;43608;49.486;9.640;2023-08-07T01:33:31;98265.75;;;11.18;100.00
57779;BME280;43608;49.486;9.640;2023-08-07T01:34:05;98280.75;;;11.22;100.00
57779;BME280;43608;49.486;9.640;2023-08-07T01:34:41;98251.72;;;11.10;100.00
57779;BME280;43608;49.486;9.640;2023-08-07T01:35:12;98268.41;;;11.20;100.00
57779;BME280;43608;49.486;9.640;2023-08-07T01:35:47;98267.53;;;11.18;100.00
57779;BME280;43608;49.486;9.640;2023-08-07T01:36:20;98235.97;;;10.99;100.00
57779;BME280;43608;49.486;9.640;2023-08-07T01:36:53;98246.53;;;11.02;100.00
57779;BME280;43608;49.486;9.640;2023-08-07T01:37:25;98284.28;;;11.21;100.00
57779;BME280;43608;49.486;9.640;2023-08-07T01:38:00;98259.72;;;11.08;100.00
57779;BME280;43608;49.486;9.640;2023-08-07T01:38:31;98277.28;;;11.17;100.00
57779;BME280;43608;49.486;9.640;2023-08-07T01:39:03;98264.16;;;11.08;100.00
57779;BME280;43608;49.486;9.640;2023-08-07T01:39:37;98276.41;;;11.15;100.00
57779;BME280;43608;49.486;9.640;2023-08-07T01:40:08;98255.31;;;11.06;100.00
57779;BME280;43608;49.486;9.640;2023-08-07T01:40:40;98265.78;;;11.17;100.00
57779;BME280;43608;49.486;9.640;2023-08-07T01:41:12;98257.13;;;11.02;100.00
57779;BME280;43608;49.486;9.640;2023-08-07T01:41:42;98280.78;;;11.19;100.00
57779;BME280;43608;49.486;9.640;2023-08-07T01:42:13;98267.63;;;11.10;100.00
57779;BME280;43608;49.486;9.640;2023-08-07T01:42:44;98274.69;;;11.11;100.00
57779;BME280;43608;49.486;9.640;2023-08-07T01:43:15;98285.22;;;11.16;100.00
57779;BME280;43608;49.486;9.640;2023-08-07T01:43:45;98279.94;;;11.14;100.00
57779;BME280;43608;49.486;9.640;2023-08-07T01:44:16;98272.94;;;11.10;100.00
57779;BME280;43608;49.486;9.640;2023-08-07T01:44:46;98275.56;;;11.12;100.00
57779;BME280;43608;49.486;9.640;2023-08-07T01:45:28;98257.19;;;10.99;100.00
57779;BME280;43608;49.486;9.640;2023-08-07T01:45:58;98279.09;;;11.14;100.00
57779;BME280;43608;49.486;9.640;2023-08-07T01:46:29;98288.78;;;11.16;100.00
57779;BME280;43608;49.486;9.640;2023-08-07T01:47:00;98265.94;;;11.06;100.00
57779;BME280;43608;49.486;9.640;2023-08-07T01:47:30;98257.22;;;10.98;100.00
57779;BME280;43608;49.486;9.640;2023-08-07T01:48:01;98250.16;;;10.95;100.00
57779;BME280;43608;49.486;9.640;2023-08-07T01:48:32;98272.94;;;11.10;100.00
57779;BME280;43608;49.486;9.640;2023-08-07T01:49:02;98266.78;;;11.06;100.00
57779;BME280;43608;49.486;9.640;2023-08-07T01:49:32;98287.88;;;11.17;100.00
57779;BME280;43608;49.486;9.640;2023-08-07T01:50:03;98285.25;;;11.17;100.00
57779;BME280;43608;49.486;9.640;2023-08-07T01:50:34;98286.19;;;11.13;100.00
57779;BME280;43608;49.486;9.640;2023-08-07T01:51:04;98265.06;;;11.05;100.00
57779;BME280;43608;49.486;9.640;2023-08-07T01:51:35;98275.56;;;11.12;100.00
57779;BME280;43608;49.486;9.640;2023-08-07T01:52:06;98279.06;;;11.15;100.00
57779;BME280;43608;49.486;9.640;2023-08-07T01:52:37;98253.63;;;10.99;100.00
57779;BME280;43608;49.486;9.640;2023-08-07T01:53:07;98255.38;;;11.03;100.00
57779;BME280;43608;49.486;9.640;2023-08-07T01:53:37;98282.66;;;11.11;100.00
57779;BME280;43608;49.486;9.640;2023-08-07T01:54:08;98252.84;;;10.92;100.00
57779;BME280;43608;49.486;9.640;2023-08-07T01:54:38;98255.41;;;10.98;100.00
57779;BME280;43608;49.486;9.640;2023-08-07T01:55:08;98280.09;;;11.03;100.00
57779;BME280;43608;49.486;9.640;2023-08-07T01:55:39;98272.09;;;11.06;100.00
57779;BME280;43608;49.486;9.640;2023-08-07T01:56:09;98276.50;;;11.07;100.00
57779;BME280;43608;49.486;9.640;2023-08-07T01:56:40;98288.81;;;11.15;100.00
57779;BME280;43608;49.486;9.640;2023-08-07T01:57:10;98275.66;;;11.07;100.00
57779;BME280;43608;49.486;9.640;2023-08-07T01:57:40;98279.13;;;11.09;100.00
57779;BME280;43608;49.486;9.640;2023-08-07T01:58:11;98268.63;;;11.03;100.00
57779;BME280;43608;49.486;9.640;2023-08-07T01:58:42;98273.03;;;11.02;100.00
57779;BME280;43608;49.486;9.640;2023-08-07T01:59:12;98276.56;;;11.04;100.00
57779;BME280;43608;49.486;9.640;2023-08-07T01:59:43;98266.00;;;11.00;100.00
57779;BME280;43608;49.486;9.640;2023-08-07T02:00:14;98296.75;;;11.15;100.00
57779;BME280;43608;49.486;9.640;2023-08-07T02:00:48;98267.72;;;11.04;100.00
57779;BME280;43608;49.486;9.640;2023-08-07T02:01:18;98280.06;;;11.05;100.00
57779;BME280;43608;49.486;9.640;2023-08-07T02:01:49;98281.88;;;11.04;100.00
57779;BME280;43608;49.486;9.640;2023-08-07T02:02:19;98291.50;;;11.10;100.00
57779;BME280;43608;49.486;9.640;2023-08-07T02:02:49;98288.94;;;11.05;100.00
57779;BME280;43608;49.486;9.640;2023-08-07T02:03:20;98278.41;;;10.98;100.00
57779;BME280;43608;49.486;9.640;2023-08-07T02:03:50;98286.31;;;11.01;100.00
57779;BME280;43608;49.486;9.640;2023-08-07T02:04:20;98297.69;;;11.09;100.00
57779;BME280;43608;49.486;9.640;2023-08-07T02:04:51;98269.59;;;10.96;100.00
57779;BME280;43608;49.486;9.640;2023-08-07T02:05:21;98263.50;;;10.89;100.00
57779;BME280;43608;49.486;9.640;2023-08-07T02:05:51;98260.00;;;10.85;100.00
57779;BME280;43608;49.486;9.640;2023-08-07T02:06:22;98273.09;;;10.96;100.00
57779;BME280;43608;49.486;9.640;2023-08-07T02:06:52;98291.56;;;11.04;100.00
57779;BME280;43608;49.486;9.640;2023-08-07T02:07:22;98284.59;;;10.97;100.00
57779;BME280;43608;49.486;9.640;2023-08-07T02:07:53;98300.41;;;11.06;100.00
57779;BME280;43608;49.486;9.640;2023-08-07T02:08:31;98306.56;;;11.10;100.00
57779;BME280;43608;49.486;9.640;2023-08-07T02:09:01;98296.00;;;11.03;100.00
57779;BME280;43608;49.486;9.640;2023-08-07T02:09:31;98295.09;;;11.06;100.00
57779;BME280;43608;49.486;9.640;2023-08-07T02:10:02;98281.91;;;11.00;100.00
57779;BME280;43608;49.486;9.640;2023-08-07T02:10:32;98284.63;;;10.95;100.00
57779;BME280;43608;49.486;9.640;2023-08-07T02:11:03;98280.22;;;10.94;100.00
57779;BME280;43608;49.486;9.640;2023-08-07T02:11:33;98298.63;;;11.06;100.00
57779;BME280;43608;49.486;9.640;2023-08-07T02:12:04;98291.66;;;10.96;100.00
57779;BME280;43608;49.486;9.640;2023-08-07T02:12:34;98305.72;;;11.06;100.00
57779;BME280;43608;49.486;9.640;2023-08-07T02:13:05;98291.69;;;10.95;100.00
57779;BME280;43608;49.486;9.640;2023-08-07T02:13:35;98303.09;;;11.04;100.00
57779;BME280;43608;49.486;9.640;2023-08-07T02:14:06;98253.09;;;10.72;100.00
57779;BME280;43608;49.486;9.640;2023-08-07T02:14:36;98307.50;;;11.04;100.00
57779;BME280;43608;49.486;9.640;2023-08-07T02:15:07;98303.09;;;11.03;100.00
57779;BME280;43608;49.486;9.640;2023-08-07T02:15:37;98306.66;;;11.02;100.00
57779;BME280;43608;49.486;9.640;2023-08-07T02:16:07;98296.16;;;10.93;100.00
57779;BME280;43608;49.486;9.640;2023-08-07T02:16:38;98293.50;;;10.93;100.00
57779;BME280;43608;49.486;9.640;2023-08-07T02:17:08;98286.47;;;10.88;100.00
57779;BME280;43608;49.486;9.640;2023-08-07T02:17:38;98306.66;;;10.99;100.00
57779;BME280;43608;49.486;9.640;2023-08-07T02:18:11;98308.44;;;10.98;100.00
57779;BME280;43608;49.486;9.640;2023-08-07T02:18:41;98305.75;;;11.01;100.00
57779;BME280;43608;49.486;9.640;2023-08-07T02:19:11;98308.41;;;11.01;100.00
57779;BME280;43608;49.486;9.640;2023-08-07T02:19:42;98286.47;;;10.88;100.00
57779;BME280;43608;49.486;9.640;2023-08-07T02:20:12;98286.47;;;10.88;100.00
57779;BME280;43608;49.486;9.640;2023-08-07T02:20:42;98309.31;;;11.00;100.00
57779;BME280;43608;49.486;9.640;2023-08-07T02:21:13;98281.22;;;10.84;100.00
57779;BME280;43608;49.486;9.640;2023-08-07T02:21:43;98288.25;;;10.86;100.00
57779;BME280;43608;49.486;9.640;2023-08-07T02:22:14;98296.97;;;10.96;100.00
57779;BME280;43608;49.486;9.640;2023-08-07T02:22:44;98276.84;;;10.81;100.00
57779;BME280;43608;49.486;9.640;2023-08-07T02:23:15;98281.28;;;10.81;100.00
57779;BME280;43608;49.486;9.640;2023-08-07T02:23:45;98282.94;;;10.88;100.00
57779;BME280;43608;49.486;9.640;2023-08-07T02:24:15;98293.56;;;10.86;100.00
57779;BME280;43608;49.486;9.640;2023-08-07T02:24:46;98287.41;;;10.84;100.00
57779;BME280;43608;49.486;9.640;2023-08-07T02:25:16;98298.81;;;10.91;100.00
57779;BME280;43608;49.486;9.640;2023-08-07T02:25:48;98291.78;;;10.87;100.00
57779;BME280;43608;49.486;9.640;2023-08-07T02:26:18;98287.44;;;10.81;100.00
57779;BME280;43608;49.486;9.640;2023-08-07T02:26:49;98294.41;;;10.88;100.00
57779;BME280;43608;49.486;9.640;2023-08-07T02:27:19;98301.44;;;10.91;100.00
57779;BME280;43608;49.486;9.640;2023-08-07T02:27:49;98297.94;;;10.90;100.00
57779;BME280;43608;49.486;9.640;2023-08-07T02:28:20;98298.81;;;10.89;100.00
57779;BME280;43608;49.486;9.640;2023-08-07T02:28:50;98281.28;;;10.81;100.00
57779;BME280;43608;49.486;9.640;2023-08-07T02:29:20;98288.31;;;10.82;100.00
57779;BME280;43608;49.486;9.640;2023-08-07T02:29:51;98299.72;;;10.90;100.00
57779;BME280;43608;49.486;9.640;2023-08-07T02:30:21;98304.06;;;10.96;100.00
57779;BME280;43608;49.486;9.640;2023-08-07T02:30:52;98305.84;;;10.94;100.00
57779;BME280;43608;49.486;9.640;2023-08-07T02:31:24;98298.81;;;10.89;100.00
57779;BME280;43608;49.486;9.640;2023-08-07T02:31:54;98305.03;;;10.90;100.00
57779;BME280;43608;49.486;9.640;2023-08-07T02:32:25;98289.13;;;10.87;100.00
57779;BME280;43608;49.486;9.640;2023-08-07T02:32:55;98306.75;;;10.93;100.00
57779;BME280;43608;49.486;9.640;2023-08-07T02:33:25;98306.75;;;10.93;100.00
57779;BME280;43608;49.486;9.640;2023-08-07T02:33:56;98306.75;;;10.91;100.00
57779;BME280;43608;49.486;9.640;2023-08-07T02:34:26;98318.19;;;10.96;100.00
57779;BME280;43608;49.486;9.640;2023-08-07T02:34:56;98280.38;;;10.83;100.00
57779;BME280;43608;49.486;9.640;2023-08-07T02:35:27;98283.00;;;10.83;100.00
57779;BME280;43608;49.486;9.640;2023-08-07T02:35:57;98285.66;;;10.83;100.00
57779;BME280;43608;49.486;9.640;2023-08-07T02:36:28;98305.00;;;10.88;100.00
57779;BME280;43608;49.486;9.640;2023-08-07T02:36:59;98280.44;;;10.77;100.00
57779;BME280;43608;49.486;9.640;2023-08-07T02:37:29;98290.97;;;10.83;100.00
57779;BME280;43608;49.486;9.640;2023-08-07T02:37:59;98307.66;;;10.91;100.00
57779;BME280;43608;49.486;9.640;2023-08-07T02:38:30;98291.88;;;10.81;100.00
57779;BME280;43608;49.486;9.640;2023-08-07T02:39:00;98297.13;;;10.84;100.00
57779;BME280;43608;49.486;9.640;2023-08-07T02:39:30;98295.34;;;10.84;100.00
57779;BME280;43608;49.486;9.640;2023-08-07T02:40:01;98286.59;;;10.78;100.00
57779;BME280;43608;49.486;9.640;2023-08-07T02:40:31;98317.34;;;10.94;100.00
57779;BME280;43608;49.486;9.640;2023-08-07T02:41:01;98299.75;;;10.85;100.00
57779;BME280;43608;49.486;9.640;2023-08-07T02:41:32;98313.81;;;10.92;100.00
57779;BME280;43608;49.486;9.640;2023-08-07T02:42:03;98283.94;;;10.78;100.00
57779;BME280;43608;49.486;9.640;2023-08-07T02:42:33;98293.63;;;10.80;100.00
57779;BME280;43608;49.486;9.640;2023-08-07T02:43:04;98309.41;;;10.91;100.00
57779;BME280;43608;49.486;9.640;2023-08-07T02:43:34;98292.72;;;10.83;100.00
57779;BME280;43608;49.486;9.640;2023-08-07T02:44:04;98313.88;;;10.89;100.00
57779;BME280;43608;49.486;9.640;2023-08-07T02:44:35;98312.97;;;10.88;100.00
57779;BME280;43608;49.486;9.640;2023-08-07T02:45:05;98283.09;;;10.76;100.00
57779;BME280;43608;49.486;9.640;2023-08-07T02:45:36;98314.72;;;10.93;100.00
57779;BME280;43608;49.486;9.640;2023-08-07T02:46:06;98302.38;;;10.87;100.00
57779;BME280;43608;49.486;9.640;2023-08-07T02:46:37;98268.22;;;10.61;100.00